Time;durP1;ratioP1;P1;durP2;ratioP2;P2;SDS_P1;SDS_P2;PMS_P1;PMS_P2;Temp;Humidity;BMP_temperature;BMP_pressure;BME280_temperature;BME280_humidity;BME280_pressure;Samples;Min_cycle;Max_cycle;Signal;HPM_P1;HPM_P2
2023/01/11 00:03:16;;;;;;;6.20;1.57;;;7.20;99.90;;;;;;10496827;28;20235;-70
2023/01/11 00:08:18;;;;;;;8.47;1.63;;;7.20;99.90;;;;;;10467880;28;20248;-71
2023/01/11 00:13:18;;;;;;;6.50;1.73;;;7.20;99.90;;;;;;10483323;28;20621;-70
2023/01/11 00:18:19;;;;;;;7.13;2.20;;;7.20;99.90;;;;;;10453207;28;20227;-70
2023/01/11 00:23:20;;;;;;;7.97;1.63;;;7.20;99.90;;;;;;10464683;28;20605;-72
2023/01/11 00:28:20;;;;;;;4.10;1.50;;;7.20;99.90;;;;;;10480109;28;20231;-73
2023/01/11 00:33:21;;;;;;;3.73;1.53;;;7.30;99.90;;;;;;10467422;28;20227;-72
2023/01/11 00:49:01;;;;;;;6.43;1.50;;;7.30;99.90;;;;;;10476361;28;20310;-72
2023/01/11 00:54:01;;;;;;;6.77;1.87;;;7.40;99.90;;;;;;10498838;28;20702;-71
2023/01/11 00:59:03;;;;;;;5.43;1.50;;;7.40;99.90;;;;;;10453264;28;20784;-72
2023/01/11 01:04:07;;;;;;;4.17;1.27;;;7.40;99.90;;;;;;10484642;28;20228;-74
2023/01/11 01:09:07;;;;;;;8.07;1.50;;;7.50;99.90;;;;;;10470417;28;20714;-74
2023/01/11 01:14:29;;;;;;;6.90;1.60;;;7.50;99.90;;;;;;10477517;28;20219;-73
2023/01/11 01:19:30;;;;;;;6.80;2.00;;;7.50;99.90;;;;;;10477659;28;20273;-73
2023/01/11 01:24:32;;;;;;;3.03;1.30;;;7.40;99.90;;;;;;10454416;28;20910;-77
2023/01/11 01:29:33;;;;;;;3.60;1.50;;;7.30;99.90;;;;;;10473422;28;20216;-78
2023/01/11 01:34:36;;;;;;;4.20;1.30;;;7.20;99.90;;;;;;10468010;28;20216;-78
2023/01/11 01:39:37;;;;;;;5.87;1.70;;;7.20;99.90;;;;;;10465600;28;20223;-72
2023/01/11 01:44:59;;;;;;;5.97;1.50;;;7.30;99.90;;;;;;10476831;28;20215;-72
2023/01/11 01:50:07;;;;;;;4.17;1.33;;;7.40;99.90;;;;;;10468346;28;20234;-72
2023/01/11 01:55:11;;;;;;;4.07;1.43;;;7.40;99.90;;;;;;10475067;28;20235;-73
2023/01/11 02:00:12;;;;;;;5.77;1.80;;;7.40;99.90;;;;;;10484984;28;20241;-72
2023/01/11 02:05:14;;;;;;;4.87;2.10;;;7.40;99.90;;;;;;10473234;28;20203;-73
2023/01/11 02:10:19;;;;;;;5.67;1.60;;;7.40;99.90;;;;;;10450220;28;20254;-73
2023/01/11 02:15:21;;;;;;;4.23;1.73;;;7.40;99.90;;;;;;10478196;28;20446;-73
2023/01/11 02:20:59;;;;;;;5.70;1.70;;;7.50;99.90;;;;;;10464900;28;20218;-73
2023/01/11 02:26:31;;;;;;;3.47;1.57;;;7.50;99.90;;;;;;10446414;28;20710;-74
2023/01/11 02:32:04;;;;;;;3.90;1.50;;;7.50;99.90;;;;;;10468073;28;20262;-73
2023/01/11 02:37:29;;;;;;;4.13;1.60;;;7.60;99.90;;;;;;10488968;28;20226;-74
2023/01/11 02:48:03;;;;;;;4.80;1.60;;;7.70;99.90;;;;;;10481511;28;20329;-72
2023/01/11 02:53:11;;;;;;;3.80;1.47;;;7.70;99.90;;;;;;10481272;28;20668;-72
2023/01/11 02:58:13;;;;;;;4.93;1.60;;;7.70;99.90;;;;;;10454298;28;20255;-71
2023/01/11 03:03:20;;;;;;;4.17;1.40;;;7.70;99.90;;;;;;10478211;28;20224;-72
2023/01/11 03:08:49;;;;;;;2.80;1.30;;;7.80;99.90;;;;;;10466934;28;20850;-72
2023/01/11 03:14:03;;;;;;;3.80;1.50;;;7.80;99.90;;;;;;10477551;28;20296;-72
2023/01/11 03:19:31;;;;;;;2.93;1.27;;;7.90;99.90;;;;;;10477056;28;20290;-71
2023/01/11 03:24:51;;;;;;;5.73;1.80;;;7.90;99.90;;;;;;10464871;28;20225;-73
2023/01/11 03:30:07;;;;;;;2.00;1.20;;;8.00;99.90;;;;;;10465547;28;20704;-72
2023/01/11 03:35:20;;;;;;;3.33;1.30;;;8.00;99.90;;;;;;10486684;28;20220;-73
2023/01/11 03:40:29;;;;;;;3.13;1.27;;;8.10;99.90;;;;;;10489379;28;20185;-73
2023/01/11 03:45:34;;;;;;;2.83;1.27;;;8.10;99.90;;;;;;10464902;28;20361;-78
2023/01/11 03:50:35;;;;;;;4.73;1.43;;;8.10;99.90;;;;;;10466224;28;20222;-75
2023/01/11 03:55:41;;;;;;;3.37;1.13;;;8.20;99.90;;;;;;10483074;28;20233;-76
2023/01/11 04:00:42;;;;;;;3.50;1.50;;;8.20;99.90;;;;;;10489336;28;20217;-75
2023/01/11 04:05:46;;;;;;;3.80;1.20;;;8.30;99.90;;;;;;10464979;28;20218;-73
2023/01/11 04:10:47;;;;;;;2.67;1.20;;;8.20;99.90;;;;;;10479314;28;20234;-74
2023/01/11 04:15:47;;;;;;;2.30;1.20;;;8.10;99.90;;;;;;10458550;28;20318;-74
2023/01/11 04:20:48;;;;;;;5.33;1.37;;;8.10;99.90;;;;;;10475004;28;20232;-74
2023/01/11 04:25:48;;;;;;;4.70;1.30;;;8.10;99.90;;;;;;10483824;28;20567;-74
2023/01/11 04:30:49;;;;;;;1.83;1.10;;;8.10;99.90;;;;;;10464950;28;20643;-78
2023/01/11 04:35:49;;;;;;;2.10;1.07;;;8.20;99.90;;;;;;10494654;28;20246;-77
2023/01/11 04:42:17;;;;;;;4.03;1.43;;;8.10;99.90;;;;;;10459941;28;20302;-78
2023/01/11 04:46:10;;;;;;;5.97;1.63;;;8.10;99.90;;;;;;10472738;28;20221;-78
2023/01/11 04:51:14;;;;;;;7.40;1.40;;;8.00;99.90;;;;;;10471369;28;20279;-77
2023/01/11 04:56:15;;;;;;;5.83;1.73;;;8.00;99.90;;;;;;10453264;28;20669;-76
2023/01/11 05:01:17;;;;;;;3.87;1.47;;;8.00;99.90;;;;;;10478194;28;20293;-72
2023/01/11 05:06:18;;;;;;;3.10;1.37;;;8.00;99.90;;;;;;10478216;28;20237;-74
2023/01/11 05:11:19;;;;;;;3.30;1.50;;;8.00;99.90;;;;;;10479251;28;20240;-75
2023/01/11 05:16:22;;;;;;;4.97;1.90;;;8.00;99.90;;;;;;10489970;28;20243;-73
2023/01/11 05:21:30;;;;;;;4.60;1.70;;;8.00;99.90;;;;;;10445309;28;20224;-81
2023/01/11 05:26:33;;;;;;;6.17;1.60;;;8.00;99.90;;;;;;10480700;28;20221;-80
2023/01/11 05:31:35;;;;;;;2.93;1.90;;;8.10;99.90;;;;;;10465970;28;20256;-80
2023/01/11 05:36:36;;;;;;;3.67;1.50;;;8.10;99.90;;;;;;10471157;28;20220;-78
2023/01/11 05:41:37;;;;;;;5.13;1.47;;;8.10;99.90;;;;;;10490706;28;20907;-80
2023/01/11 05:46:42;;;;;;;10.60;5.23;;;8.20;99.90;;;;;;10458174;28;20234;-79
2023/01/11 05:51:43;;;;;;;6.73;3.90;;;8.30;99.90;;;;;;10475763;28;20213;-72
2023/01/11 05:56:43;;;;;;;5.00;2.80;;;8.30;99.90;;;;;;10472555;28;20564;-74
2023/01/11 06:01:44;;;;;;;5.17;2.60;;;8.40;99.90;;;;;;10476433;28;20699;-76
2023/01/11 06:06:44;;;;;;;3.47;2.00;;;8.40;99.90;;;;;;10449331;28;20657;-76
2023/01/11 06:11:45;;;;;;;5.37;1.90;;;8.40;99.90;;;;;;10454957;28;20217;-74
2023/01/11 06:16:46;;;;;;;4.67;2.10;;;8.40;99.90;;;;;;10463206;28;20300;-75
2023/01/11 06:21:46;;;;;;;7.67;2.33;;;8.30;99.90;;;;;;10467285;28;20231;-74
2023/01/11 06:26:47;;;;;;;2.73;1.97;;;8.20;99.90;;;;;;10477062;28;20222;-78
2023/01/11 06:31:47;;;;;;;3.83;2.00;;;8.20;99.90;;;;;;10477034;28;20765;-76
2023/01/11 06:36:48;;;;;;;6.13;2.40;;;8.20;99.90;;;;;;10476277;28;20611;-71
2023/01/11 06:41:48;;;;;;;8.97;3.00;;;8.20;99.90;;;;;;10481889;28;20222;-69
2023/01/11 06:46:49;;;;;;;7.90;2.80;;;8.10;99.90;;;;;;10467820;28;20208;-70
2023/01/11 06:51:49;;;;;;;4.80;2.87;;;8.20;99.90;;;;;;10463136;28;20215;-70
2023/01/11 06:56:50;;;;;;;5.40;3.97;;;8.20;99.90;;;;;;10436492;28;20233;-70
2023/01/11 07:01:51;;;;;;;6.70;3.10;;;8.20;99.90;;;;;;10467567;28;20676;-70
2023/01/11 07:06:53;;;;;;;6.77;3.30;;;8.20;99.90;;;;;;10506137;28;20440;-70
2023/01/11 07:11:53;;;;;;;5.77;2.93;;;8.30;99.90;;;;;;10490722;28;20213;-70
2023/01/11 07:16:54;;;;;;;7.60;3.00;;;8.30;99.90;;;;;;10483147;28;20221;-71
2023/01/11 07:21:54;;;;;;;8.43;2.50;;;8.30;99.90;;;;;;10459696;28;20306;-70
2023/01/11 07:26:58;;;;;;;7.47;2.73;;;8.40;99.90;;;;;;10468093;28;20215;-68
2023/01/11 07:31:58;;;;;;;5.87;2.23;;;8.40;99.90;;;;;;10449963;28;20240;-67
2023/01/11 07:36:59;;;;;;;5.33;2.10;;;8.40;99.90;;;;;;10491687;28;20306;-68
2023/01/11 07:47:19;;;;;;;2.47;1.73;;;8.50;99.90;;;;;;10486977;28;20224;-68
2023/01/11 07:52:20;;;;;;;2.60;2.10;;;8.60;99.90;;;;;;10504445;28;20226;-69
2023/01/11 07:57:20;;;;;;;6.87;2.30;;;8.50;99.90;;;;;;10496034;28;20281;-69
2023/01/11 08:02:21;;;;;;;8.50;2.63;;;8.50;99.90;;;;;;10497586;28;20233;-68
2023/01/11 08:07:22;;;;;;;4.37;2.33;;;8.50;99.90;;;;;;10484654;28;20645;-68
2023/01/11 08:17:41;;;;;;;4.90;2.10;;;8.60;99.90;;;;;;10478487;28;20243;-69
2023/01/11 08:22:42;;;;;;;5.67;2.20;;;8.60;99.90;;;;;;10485140;28;20252;-69
2023/01/11 08:27:43;;;;;;;4.57;2.43;;;8.60;99.90;;;;;;10468300;28;20237;-69
2023/01/11 08:32:43;;;;;;;8.93;2.23;;;8.60;99.90;;;;;;10472234;28;20587;-70
2023/01/11 08:37:44;;;;;;;3.73;2.00;;;8.60;99.90;;;;;;10475314;28;20252;-70
2023/01/11 08:42:45;;;;;;;3.40;2.13;;;8.70;99.90;;;;;;10491458;28;20222;-71
2023/01/11 08:47:45;;;;;;;8.53;2.53;;;8.70;99.90;;;;;;10481372;28;20286;-68
2023/01/11 08:52:46;;;;;;;3.30;2.43;;;8.70;99.90;;;;;;10450348;28;20274;-69
2023/01/11 08:57:47;;;;;;;4.87;2.20;;;8.80;99.90;;;;;;10470725;28;20292;-69
2023/01/11 09:02:48;;;;;;;3.83;2.10;;;8.80;99.90;;;;;;10479175;28;20388;-69
2023/01/11 09:07:48;;;;;;;4.20;2.10;;;8.80;99.90;;;;;;10486142;28;20222;-70
2023/01/11 09:12:50;;;;;;;4.23;1.90;;;8.80;99.90;;;;;;10465822;28;20226;-69
2023/01/11 09:17:51;;;;;;;6.10;1.80;;;8.90;99.90;;;;;;10472974;28;20222;-67
2023/01/11 09:22:52;;;;;;;3.57;1.77;;;8.90;99.90;;;;;;10492831;28;20230;-70
2023/01/11 09:27:52;;;;;;;9.27;1.83;;;8.90;99.90;;;;;;10469908;28;20232;-71
2023/01/11 09:32:53;;;;;;;4.77;1.93;;;8.90;99.90;;;;;;10492519;28;20652;-69
2023/01/11 09:37:55;;;;;;;3.23;1.77;;;9.00;99.90;;;;;;10454468;28;20297;-69
2023/01/11 09:43:00;;;;;;;7.50;2.20;;;9.00;99.90;;;;;;10502240;28;20691;-69
2023/01/11 09:48:25;;;;;;;4.20;2.00;;;9.00;99.90;;;;;;10475545;28;20669;-69
2023/01/11 09:53:37;;;;;;;7.00;2.60;;;9.00;99.90;;;;;;10480365;28;20206;-70
2023/01/11 09:59:04;;;;;;;3.17;1.97;;;9.00;99.90;;;;;;10497489;28;20222;-70
2023/01/11 10:04:21;;;;;;;4.63;2.00;;;9.10;99.90;;;;;;10471299;28;20227;-70
2023/01/11 10:09:50;;;;;;;4.07;1.80;;;9.10;99.90;;;;;;10467604;28;20232;-70
2023/01/11 10:15:14;;;;;;;2.80;2.30;;;9.10;99.90;;;;;;10500042;28;20219;-68
2023/01/11 10:20:15;;;;;;;6.30;2.03;;;9.20;99.90;;;;;;10472738;28;20530;-68
2023/01/11 10:25:20;;;;;;;4.77;2.50;;;9.20;99.90;;;;;;10504907;28;20186;-69
2023/01/11 10:36:09;;;;;;;2.70;2.33;;;9.30;99.90;;;;;;10481241;28;20289;-69
2023/01/11 10:41:24;;;;;;;2.77;2.50;;;9.30;99.90;;;;;;10492696;28;20229;-69
2023/01/11 10:46:27;;;;;;;5.63;3.00;;;9.30;99.90;;;;;;10465716;28;20653;-69
2023/01/11 10:51:42;;;;;;;4.93;2.53;;;9.30;99.90;;;;;;10477054;28;20246;-69
2023/01/11 10:57:18;;;;;;;4.90;3.07;;;9.40;99.90;;;;;;10473904;28;20321;-70
2023/01/11 11:02:40;;;;;;;5.10;2.90;;;9.50;99.90;;;;;;10459415;28;20782;-69
2023/01/11 11:08:10;;;;;;;6.27;3.20;;;9.60;99.90;;;;;;10467869;28;20660;-69
2023/01/11 11:13:42;;;;;;;5.30;3.20;;;9.60;99.90;;;;;;10470959;28;20218;-69
2023/01/11 11:18:43;;;;;;;4.67;3.13;;;9.60;99.90;;;;;;10450565;28;20221;-70
2023/01/11 11:23:55;;;;;;;3.53;2.27;;;9.70;99.90;;;;;;10481350;28;20216;-70
2023/01/11 11:29:08;;;;;;;3.40;2.40;;;9.90;99.90;;;;;;10476326;28;20243;-70
2023/01/11 11:34:18;;;;;;;3.60;1.83;;;10.20;99.90;;;;;;10501031;28;20291;-70
2023/01/11 11:39:21;;;;;;;2.70;2.17;;;10.50;99.90;;;;;;10470873;28;20231;-69
2023/01/11 11:44:26;;;;;;;5.57;2.47;;;10.70;99.90;;;;;;10486508;28;20245;-70
2023/01/11 11:49:32;;;;;;;4.40;2.30;;;10.80;99.90;;;;;;10486959;28;20233;-70
2023/01/11 11:54:34;;;;;;;3.60;2.40;;;10.80;99.90;;;;;;10482848;28;20215;-70
2023/01/11 11:59:35;;;;;;;5.27;2.47;;;10.80;99.90;;;;;;10484402;28;20781;-68
2023/01/11 12:04:47;;;;;;;5.80;3.10;;;11.00;99.90;;;;;;10474588;28;20229;-70
2023/01/11 12:09:54;;;;;;;4.13;2.70;;;11.00;99.90;;;;;;10489304;28;20228;-71
2023/01/11 12:15:14;;;;;;;3.33;2.67;;;11.10;99.90;;;;;;10491308;28;20237;-70
2023/01/11 12:20:29;;;;;;;3.20;2.90;;;11.10;99.90;;;;;;10481251;28;20221;-70
2023/01/11 12:25:31;;;;;;;5.90;2.97;;;11.10;99.90;;;;;;10472477;28;20293;-71
2023/01/11 12:30:51;;;;;;;5.53;3.30;;;11.00;99.90;;;;;;10488056;28;20226;-71
2023/01/11 12:36:04;;;;;;;4.93;3.13;;;10.80;99.90;;;;;;10496562;28;20284;-70
2023/01/11 12:41:51;;;;;;;5.50;3.20;;;10.70;99.90;;;;;;10495124;28;20218;-69
2023/01/11 12:47:25;;;;;;;4.50;3.97;;;10.70;99.90;;;;;;10469450;28;20227;-69
2023/01/11 12:53:07;;;;;;;5.40;3.80;;;10.70;99.90;;;;;;10474156;28;20223;-71
2023/01/11 12:58:34;;;;;;;5.70;3.60;;;10.70;99.90;;;;;;10418156;28;20607;-70
2023/01/11 13:03:59;;;;;;;5.47;3.27;;;10.60;99.90;;;;;;10452397;28;20288;-69
2023/01/11 13:09:16;;;;;;;4.87;3.63;;;10.50;99.90;;;;;;10479743;28;20223;-69
2023/01/11 13:14:44;;;;;;;3.90;3.10;;;10.50;99.90;;;;;;10473265;28;20218;-69
2023/01/11 13:20:19;;;;;;;6.73;3.97;;;10.40;99.90;;;;;;10478946;28;20226;-70
2023/01/11 13:25:26;;;;;;;7.80;4.17;;;10.40;99.90;;;;;;10470416;28;20589;-69
2023/01/11 13:30:27;;;;;;;5.70;4.07;;;10.40;99.90;;;;;;10490878;28;20603;-71
2023/01/11 13:35:41;;;;;;;6.83;4.00;;;10.40;99.90;;;;;;10475494;28;20229;-71
2023/01/11 13:40:49;;;;;;;5.27;3.53;;;10.40;99.90;;;;;;10494361;28;20214;-70
2023/01/11 13:45:52;;;;;;;5.97;2.87;;;10.60;99.90;;;;;;10448044;28;20257;-70
2023/01/11 13:51:08;;;;;;;5.10;2.70;;;10.60;99.90;;;;;;10472820;28;20308;-70
2023/01/11 13:56:20;;;;;;;4.40;1.70;;;10.60;99.90;;;;;;10487270;28;20734;-70
2023/01/11 14:01:39;;;;;;;2.90;1.73;;;10.60;99.90;;;;;;10496298;28;20223;-68
2023/01/11 14:07:19;;;;;;;2.87;1.23;;;10.70;99.90;;;;;;10487535;28;20592;-70
2023/01/11 14:12:49;;;;;;;3.73;1.60;;;10.60;99.90;;;;;;10477672;28;20219;-70
2023/01/11 14:18:26;;;;;;;6.47;1.47;;;10.50;99.90;;;;;;10477650;28;20226;-71
2023/01/11 14:23:49;;;;;;;5.10;1.63;;;10.40;99.90;;;;;;10447294;28;20301;-71
2023/01/11 14:29:15;;;;;;;6.90;1.53;;;10.30;99.90;;;;;;10452184;28;20224;-71
2023/01/11 14:34:43;;;;;;;5.73;2.47;;;10.20;99.90;;;;;;10476755;28;20218;-71
2023/01/11 14:40:09;;;;;;;5.63;1.80;;;10.10;99.90;;;;;;10467252;28;20230;-69
2023/01/11 14:46:00;;;;;;;4.43;1.83;;;10.00;99.90;;;;;;10469142;28;20223;-71
2023/01/11 14:51:20;;;;;;;4.37;2.37;;;10.00;99.90;;;;;;10450307;28;20230;-70
2023/01/11 14:56:43;;;;;;;6.93;2.17;;;9.90;99.90;;;;;;10469073;28;20241;-71
2023/01/11 15:02:02;;;;;;;4.07;1.57;;;9.80;99.90;;;;;;10484435;28;20249;-72
2023/01/11 15:07:30;;;;;;;2.37;1.60;;;9.80;99.90;;;;;;10465416;28;20274;-72
2023/01/11 15:12:34;;;;;;;5.47;4.30;;;9.80;99.90;;;;;;10467346;28;20352;-70
2023/01/11 15:23:02;;;;;;;3.50;3.10;;;9.70;99.90;;;;;;10469040;28;20265;-71
2023/01/11 15:28:24;;;;;;;4.33;2.63;;;9.50;99.90;;;;;;10483992;28;20257;-71
2023/01/11 15:33:24;;;;;;;6.67;2.03;;;9.40;99.90;;;;;;10477029;28;20217;-70
2023/01/11 15:38:33;;;;;;;3.00;1.60;;;9.30;99.90;;;;;;10465670;28;20698;-72
2023/01/11 15:43:48;;;;;;;5.07;1.43;;;9.20;99.90;;;;;;10447914;28;20272;-70
2023/01/11 15:49:07;;;;;;;4.77;1.67;;;9.10;99.90;;;;;;10467326;28;20894;-70
2023/01/11 15:54:35;;;;;;;3.30;1.77;;;9.10;99.90;;;;;;10462693;28;20210;-71
2023/01/11 15:59:45;;;;;;;6.63;1.83;;;9.00;99.90;;;;;;10457091;28;20718;-70
2023/01/11 16:05:00;;;;;;;7.97;1.53;;;8.90;99.90;;;;;;10483116;28;20299;-70
2023/01/11 16:10:11;;;;;;;10.00;2.23;;;8.90;99.90;;;;;;10461495;28;20244;-69
2023/01/11 16:15:44;;;;;;;5.20;1.30;;;8.90;99.90;;;;;;10497610;28;20668;-70
2023/01/11 16:21:01;;;;;;;7.10;2.17;;;8.80;99.90;;;;;;10486741;28;20230;-72
2023/01/11 16:26:03;;;;;;;7.77;2.07;;;8.80;99.90;;;;;;10454317;28;20220;-70
2023/01/11 16:31:04;;;;;;;6.63;1.87;;;8.90;99.90;;;;;;10474264;28;20577;-70
2023/01/11 16:36:17;;;;;;;6.17;2.30;;;8.90;99.90;;;;;;10458820;28;20230;-70
2023/01/11 16:41:19;;;;;;;10.77;2.60;;;8.80;99.90;;;;;;10472570;28;20220;-70
2023/01/11 16:47:12;;;;;;;10.63;2.40;;;8.80;99.90;;;;;;10476991;28;20273;-70
2023/01/11 16:52:34;;;;;;;8.67;2.33;;;8.70;99.90;;;;;;10485389;28;20230;-70
2023/01/11 16:57:40;;;;;;;9.13;2.43;;;8.60;99.90;;;;;;10469782;28;20285;-69
2023/01/11 17:02:43;;;;;;;12.90;2.97;;;8.50;99.90;;;;;;10472279;28;20250;-69
2023/01/11 17:07:43;;;;;;;11.50;3.20;;;8.50;99.90;;;;;;10468738;28;20640;-68
2023/01/11 17:12:47;;;;;;;8.43;2.40;;;8.50;99.90;;;;;;10464419;28;20276;-70
2023/01/11 17:17:49;;;;;;;6.47;2.47;;;8.50;99.90;;;;;;10464247;28;20599;-69
2023/01/11 17:22:52;;;;;;;10.57;2.20;;;8.50;99.90;;;;;;10448126;28;20234;-69
2023/01/11 17:28:05;;;;;;;10.43;2.23;;;8.50;99.90;;;;;;10474314;28;20235;-71
2023/01/11 17:33:22;;;;;;;8.47;2.23;;;8.40;99.90;;;;;;10474067;28;20308;-75
2023/01/11 17:38:26;;;;;;;7.63;2.13;;;8.30;99.90;;;;;;10486477;28;20747;-78
2023/01/11 17:48:57;;;;;;;11.83;2.23;;;8.10;99.90;;;;;;10488457;28;20224;-70
2023/01/11 17:53:58;;;;;;;13.07;3.20;;;8.10;99.90;;;;;;10457718;28;20851;-74
2023/01/11 17:59:17;;;;;;;9.67;2.23;;;8.00;99.90;;;;;;10467867;28;20325;-71
2023/01/11 18:04:20;;;;;;;10.20;2.30;;;8.00;99.90;;;;;;10467650;28;20357;-71
2023/01/11 18:09:30;;;;;;;10.80;3.03;;;7.90;99.90;;;;;;10466027;28;20311;-72
2023/01/11 18:15:08;;;;;;;10.13;3.07;;;7.80;99.90;;;;;;10473367;28;20216;-74
2023/01/11 18:20:14;;;;;;;10.63;2.40;;;7.80;99.90;;;;;;10440744;28;20219;-71
2023/01/11 18:25:29;;;;;;;11.87;3.30;;;7.70;99.90;;;;;;10441059;28;20189;-70
2023/01/11 18:30:36;;;;;;;8.40;2.77;;;7.70;99.90;;;;;;10454444;28;20289;-71
2023/01/11 18:35:44;;;;;;;8.97;2.60;;;7.60;99.90;;;;;;10460941;28;20253;-71
2023/01/11 18:40:46;;;;;;;10.43;3.17;;;7.50;99.90;;;;;;10461561;28;20967;-71
2023/01/11 18:45:47;;;;;;;9.87;2.60;;;7.50;99.90;;;;;;10465917;28;20228;-72
2023/01/11 18:50:50;;;;;;;12.27;3.00;;;7.40;99.90;;;;;;10466812;28;20801;-73
2023/01/11 18:55:56;;;;;;;11.20;3.73;;;7.20;99.90;;;;;;10466529;28;20231;-71
2023/01/11 19:00:58;;;;;;;12.53;2.80;;;7.20;99.90;;;;;;10480630;28;20221;-71
2023/01/11 19:05:59;;;;;;;13.47;3.70;;;7.10;99.90;;;;;;10473812;28;20215;-72
2023/01/11 19:11:01;;;;;;;13.47;3.27;;;7.10;99.90;;;;;;10473741;28;20760;-72
2023/01/11 19:16:02;;;;;;;9.90;2.83;;;7.20;99.90;;;;;;10490177;28;20272;-74
2023/01/11 19:21:12;;;;;;;10.87;2.97;;;7.20;99.90;;;;;;10462620;28;20322;-72
2023/01/11 19:26:13;;;;;;;14.63;2.90;;;7.20;99.90;;;;;;10495476;28;20223;-75
2023/01/11 19:31:14;;;;;;;11.13;2.60;;;7.30;99.90;;;;;;10476667;28;20282;-74
2023/01/11 19:36:14;;;;;;;9.90;2.13;;;7.30;99.90;;;;;;10487352;28;20226;-71
2023/01/11 19:41:15;;;;;;;12.17;2.77;;;7.40;99.90;;;;;;10495433;28;20211;-73
2023/01/11 19:46:16;;;;;;;13.23;2.90;;;7.40;99.90;;;;;;10497948;28;20212;-74
2023/01/11 19:51:16;;;;;;;12.70;2.67;;;7.40;99.90;;;;;;10455310;28;20219;-75
2023/01/11 19:56:17;;;;;;;11.20;3.50;;;7.40;99.90;;;;;;10478946;28;20273;-74
2023/01/11 20:01:17;;;;;;;11.67;2.97;;;7.30;99.90;;;;;;10498275;28;20215;-74
2023/01/11 20:06:18;;;;;;;8.87;2.30;;;7.30;99.90;;;;;;10469169;28;20250;-70
2023/01/11 20:11:19;;;;;;;10.53;2.63;;;7.30;99.90;;;;;;10461728;28;20285;-71
2023/01/11 20:16:23;;;;;;;8.77;2.43;;;7.30;99.90;;;;;;10483947;28;20230;-72
2023/01/11 20:21:27;;;;;;;14.97;2.87;;;7.30;99.90;;;;;;10477152;28;20220;-71
2023/01/11 20:26:29;;;;;;;9.83;2.53;;;7.30;99.90;;;;;;10488825;28;20319;-74
2023/01/11 20:31:31;;;;;;;13.73;2.90;;;7.30;99.90;;;;;;10474974;28;20234;-71
2023/01/11 20:36:32;;;;;;;12.33;2.43;;;7.30;99.90;;;;;;10470338;28;20228;-76
2023/01/11 20:41:50;;;;;;;10.37;2.70;;;7.20;99.90;;;;;;10497079;28;20237;-75
2023/01/11 20:46:52;;;;;;;10.73;2.70;;;7.20;99.90;;;;;;10463507;28;20250;-77
2023/01/11 20:51:53;;;;;;;9.43;2.87;;;7.20;99.90;;;;;;10457252;28;20291;-76
2023/01/11 20:56:55;;;;;;;8.13;2.47;;;7.20;99.90;;;;;;10483276;28;20238;-70
2023/01/11 21:01:56;;;;;;;14.37;2.40;;;7.10;99.90;;;;;;10480143;28;20224;-73
2023/01/11 21:06:57;;;;;;;10.57;2.53;;;7.00;99.90;;;;;;10466892;28;20255;-73
2023/01/11 21:11:57;;;;;;;7.47;2.20;;;7.00;99.90;;;;;;10482570;28;20239;-74
2023/01/11 21:16:58;;;;;;;8.70;2.53;;;7.00;99.90;;;;;;10471227;28;20227;-73
2023/01/11 21:21:58;;;;;;;7.63;2.10;;;7.00;99.90;;;;;;10457376;28;20243;-74
2023/01/11 21:26:59;;;;;;;9.20;2.13;;;7.00;99.90;;;;;;10469605;28;20801;-72
2023/01/11 21:32:00;;;;;;;7.17;2.10;;;7.10;99.90;;;;;;10478945;28;20246;-74
2023/01/11 21:37:00;;;;;;;8.00;2.00;;;7.10;99.90;;;;;;10493108;28;20211;-72
2023/01/11 21:42:02;;;;;;;6.27;1.70;;;7.10;99.90;;;;;;10487959;28;20247;-72
2023/01/11 21:47:05;;;;;;;13.53;2.50;;;7.20;99.90;;;;;;10474304;28;20231;-75
2023/01/11 21:52:06;;;;;;;8.13;2.60;;;7.30;99.90;;;;;;10477171;28;20227;-78
2023/01/11 21:57:06;;;;;;;10.77;2.30;;;7.20;99.90;;;;;;10481096;28;20235;-73
2023/01/11 22:02:09;;;;;;;9.27;2.30;;;7.20;99.90;;;;;;10450589;28;20224;-75
2023/01/11 22:07:09;;;;;;;9.90;2.60;;;7.20;99.90;;;;;;10461054;28;20635;-73
2023/01/11 22:12:10;;;;;;;8.40;2.30;;;7.20;99.90;;;;;;10485111;28;20238;-76
2023/01/11 22:17:11;;;;;;;10.17;2.50;;;7.20;99.90;;;;;;10480575;28;20892;-72
2023/01/11 22:22:11;;;;;;;14.00;2.93;;;7.20;99.90;;;;;;10515508;28;20262;-70
2023/01/11 22:27:15;;;;;;;14.90;2.60;;;7.20;99.90;;;;;;10474645;28;20231;-74
2023/01/11 22:32:15;;;;;;;11.60;2.40;;;7.20;99.90;;;;;;10466811;28;20225;-75
2023/01/11 22:37:16;;;;;;;12.23;2.43;;;7.30;99.90;;;;;;10476215;28;20377;-74
2023/01/11 22:42:16;;;;;;;12.13;2.70;;;7.30;99.90;;;;;;10457225;28;20231;-74
2023/01/11 22:47:17;;;;;;;8.87;2.23;;;7.40;99.90;;;;;;10475474;28;20678;-74
2023/01/11 22:52:17;;;;;;;8.97;2.67;;;7.40;99.90;;;;;;10477002;28;20247;-73
2023/01/11 22:57:18;;;;;;;7.83;2.13;;;7.50;99.90;;;;;;10473890;28;20227;-74
2023/01/11 23:02:18;;;;;;;11.77;1.90;;;7.60;99.90;;;;;;10461405;28;20236;-74
2023/01/11 23:07:23;;;;;;;10.03;2.30;;;7.70;99.90;;;;;;10489117;28;20231;-73
2023/01/11 23:17:45;;;;;;;12.70;2.33;;;7.90;99.90;;;;;;10469989;28;20220;-74
2023/01/11 23:22:48;;;;;;;12.50;2.53;;;8.10;99.90;;;;;;10468090;28;20833;-75
2023/01/11 23:27:49;;;;;;;8.13;2.00;;;8.20;99.90;;;;;;10462033;28;20235;-74
2023/01/11 23:32:50;;;;;;;13.03;2.40;;;8.10;99.90;;;;;;10470439;28;20906;-74
2023/01/11 23:37:53;;;;;;;10.93;2.37;;;8.00;99.90;;;;;;10457865;28;20718;-74
2023/01/11 23:42:53;;;;;;;9.27;2.50;;;8.00;99.90;;;;;;10478395;28;20253;-74
2023/01/11 23:47:54;;;;;;;14.47;2.70;;;7.90;99.90;;;;;;10482136;28;20865;-74
2023/01/11 23:52:54;;;;;;;11.63;2.60;;;7.90;99.90;;;;;;10484705;28;20624;-74
2023/01/11 23:58:10;;;;;;;9.37;2.40;;;7.90;99.90;;;;;;10459078;28;20890;-74
